Time;durP1;ratioP1;P1;durP2;ratioP2;P2;SDS_P1;SDS_P2;PMS_P1;PMS_P2;Temp;Humidity;BMP_temperature;BMP_pressure;BME280_temperature;BME280_humidity;BME280_pressure;Samples;Min_cycle;Max_cycle;Signal;HPM_P1;HPM_P2
2021/04/22 00:00:17;;;;;;;6.20;5.80;;;21.40;49.00;;;;;;5032638;28;20063;-43
2021/04/22 00:02:42;;;;;;;6.45;5.88;;;21.30;48.90;;;;;;5049903;28;20036;-37
2021/04/22 00:05:21;;;;;;;6.28;5.88;;;21.30;48.90;;;;;;5036389;28;20053;-37
2021/04/22 00:07:48;;;;;;;6.18;5.78;;;21.30;49.00;;;;;;5037812;28;20030;-38
2021/04/22 00:10:14;;;;;;;5.80;5.40;;;21.30;49.00;;;;;;5034877;28;20091;-39
2021/04/22 00:12:40;;;;;;;6.60;6.13;;;21.30;49.10;;;;;;5016160;28;20851;-37
2021/04/22 00:15:24;;;;;;;5.60;5.28;;;21.30;49.00;;;;;;5032501;28;20064;-38
2021/04/22 00:17:53;;;;;;;6.00;5.65;;;21.30;49.00;;;;;;5046601;28;20487;-37
2021/04/22 00:20:18;;;;;;;5.90;5.50;;;21.30;49.10;;;;;;5041005;28;20020;-39
2021/04/22 00:22:44;;;;;;;6.07;5.57;;;21.20;49.10;;;;;;5039244;28;20032;-38
2021/04/22 00:25:10;;;;;;;5.70;5.32;;;21.30;49.10;;;;;;5036474;28;20028;-39
2021/04/22 00:27:36;;;;;;;5.78;5.38;;;21.20;49.10;;;;;;5033103;28;20030;-39
2021/04/22 00:30:04;;;;;;;6.88;6.30;;;21.20;50.00;;;;;;5036540;28;20371;-33
2021/04/22 00:32:29;;;;;;;6.13;5.72;;;21.20;49.30;;;;;;5039198;28;20479;-38
2021/04/22 00:34:55;;;;;;;6.68;6.28;;;21.20;49.40;;;;;;5039145;28;20028;-37
2021/04/22 00:37:20;;;;;;;6.28;5.88;;;21.20;49.30;;;;;;5039354;28;20503;-38
2021/04/22 00:39:46;;;;;;;6.50;6.07;;;21.20;49.30;;;;;;5035803;28;20426;-41
2021/04/22 00:42:11;;;;;;;6.53;6.00;;;21.20;49.50;;;;;;5050794;28;20030;-41
2021/04/22 00:44:37;;;;;;;6.57;6.07;;;21.20;49.40;;;;;;5039032;28;20053;-38
2021/04/22 00:47:03;;;;;;;6.82;6.28;;;21.20;50.10;;;;;;5043884;28;20025;-39
2021/04/22 00:49:29;;;;;;;6.32;5.93;;;21.20;49.40;;;;;;5039040;28;20026;-36
2021/04/22 00:51:54;;;;;;;6.43;6.03;;;21.20;49.40;;;;;;5018474;28;20034;-39
2021/04/22 00:54:20;;;;;;;6.75;6.25;;;21.20;49.40;;;;;;5016623;28;20037;-33
2021/04/22 00:56:46;;;;;;;7.05;6.55;;;21.20;49.40;;;;;;5046014;28;20031;-43
2021/04/22 00:59:12;;;;;;;6.65;6.20;;;21.20;49.50;;;;;;5037846;28;20029;-38
2021/04/22 01:01:37;;;;;;;6.38;5.88;;;21.20;49.50;;;;;;5046448;28;20124;-38
2021/04/22 01:04:03;;;;;;;6.90;6.28;;;21.10;49.40;;;;;;5048612;28;20115;-41
2021/04/22 01:06:29;;;;;;;5.97;5.57;;;21.10;49.50;;;;;;5035317;28;20412;-34
2021/04/22 01:08:55;;;;;;;5.97;5.57;;;21.10;49.50;;;;;;5018855;28;20460;-45
2021/04/22 01:11:28;;;;;;;5.90;5.50;;;21.10;49.50;;;;;;5038823;28;20025;-37
2021/04/22 01:13:53;;;;;;;6.30;5.70;;;21.10;49.50;;;;;;5038382;28;20103;-38
2021/04/22 01:16:19;;;;;;;6.85;6.35;;;21.10;49.60;;;;;;5038678;28;20385;-36
2021/04/22 01:18:45;;;;;;;6.78;6.28;;;21.10;49.70;;;;;;5039632;28;20064;-38
2021/04/22 01:21:21;;;;;;;6.80;6.30;;;21.10;49.80;;;;;;5045344;28;20025;-36
2021/04/22 01:23:47;;;;;;;5.97;5.57;;;21.10;49.70;;;;;;5045564;28;20033;-41
2021/04/22 01:26:12;;;;;;;6.95;6.55;;;21.10;49.70;;;;;;5021244;28;20026;-41
2021/04/22 01:28:38;;;;;;;6.05;5.63;;;21.10;49.70;;;;;;5037174;28;20033;-38
2021/04/22 01:31:03;;;;;;;5.88;5.57;;;21.10;49.80;;;;;;5038099;28;20078;-40
2021/04/22 01:33:29;;;;;;;6.60;6.20;;;21.00;49.70;;;;;;5035185;28;20455;-40
2021/04/22 01:35:57;;;;;;;5.90;5.50;;;21.10;49.80;;;;;;5038063;28;20039;-41
2021/04/22 01:38:23;;;;;;;6.55;6.05;;;21.10;49.80;;;;;;5038727;28;20039;-36
2021/04/22 01:40:49;;;;;;;6.97;6.47;;;21.10;49.80;;;;;;5041145;28;20104;-35
2021/04/22 01:43:15;;;;;;;6.18;5.72;;;21.10;49.90;;;;;;5046125;28;20112;-40
2021/04/22 01:45:40;;;;;;;6.22;5.85;;;21.10;50.50;;;;;;5037123;28;20025;-38
2021/04/22 01:48:06;;;;;;;5.95;5.60;;;21.10;49.80;;;;;;5034566;28;20033;-37
2021/04/22 01:50:33;;;;;;;5.95;5.53;;;21.10;49.80;;;;;;5037738;28;20086;-45
2021/04/22 01:52:59;;;;;;;6.82;6.32;;;21.10;49.80;;;;;;5037356;28;20034;-39
2021/04/22 01:55:31;;;;;;;6.35;5.95;;;21.10;49.80;;;;;;5036607;28;20079;-39
2021/04/22 01:57:57;;;;;;;6.25;5.82;;;21.10;49.80;;;;;;5042796;28;20036;-37
2021/04/22 02:00:31;;;;;;;6.35;5.95;;;21.10;49.90;;;;;;5033323;28;20387;-40
2021/04/22 02:02:57;;;;;;;5.55;5.25;;;21.10;49.90;;;;;;5051108;28;20068;-38
2021/04/22 02:05:22;;;;;;;6.43;5.82;;;21.10;49.90;;;;;;5041938;28;20057;-40
2021/04/22 02:07:49;;;;;;;6.50;6.00;;;21.10;49.90;;;;;;5040651;28;20037;-38
2021/04/22 02:10:15;;;;;;;6.65;6.25;;;21.10;49.90;;;;;;5038365;28;20029;-41
2021/04/22 02:12:40;;;;;;;6.03;5.63;;;21.00;49.90;;;;;;5034055;28;20033;-40
2021/04/22 02:15:08;;;;;;;6.25;5.82;;;21.00;49.90;;;;;;5041016;28;20415;-41
2021/04/22 02:17:34;;;;;;;6.25;5.75;;;21.00;49.90;;;;;;5048424;28;20092;-40
2021/04/22 02:19:59;;;;;;;7.25;6.65;;;21.00;50.00;;;;;;5048605;28;20104;-39
2021/04/22 02:22:25;;;;;;;6.35;5.90;;;21.00;50.00;;;;;;5030683;28;20044;-39
2021/04/22 02:24:50;;;;;;;6.38;5.88;;;21.00;50.00;;;;;;5045646;28;20047;-38
2021/04/22 02:27:16;;;;;;;6.85;6.35;;;20.90;50.00;;;;;;5048026;28;20380;-40
2021/04/22 02:29:41;;;;;;;6.70;6.22;;;20.90;50.70;;;;;;5052215;28;20068;-44
2021/04/22 02:32:07;;;;;;;6.22;5.82;;;20.90;50.10;;;;;;5056538;28;20486;-36
2021/04/22 02:34:33;;;;;;;5.95;5.60;;;21.00;50.10;;;;;;5058140;28;20694;-37
2021/04/22 02:36:59;;;;;;;6.63;6.22;;;20.90;50.00;;;;;;5052308;28;20024;-38
2021/04/22 02:39:25;;;;;;;6.82;6.43;;;21.00;50.10;;;;;;5048569;28;20017;-39
2021/04/22 02:41:51;;;;;;;6.57;6.18;;;20.90;50.70;;;;;;5052787;28;20436;-42
2021/04/22 02:44:16;;;;;;;7.43;6.82;;;20.90;50.10;;;;;;5048659;28;20094;-40
2021/04/22 02:46:42;;;;;;;6.03;5.63;;;20.90;50.20;;;;;;5046260;28;20444;-40
2021/04/22 02:49:07;;;;;;;6.47;6.05;;;20.90;50.10;;;;;;5041680;28;20107;-37
2021/04/22 02:51:33;;;;;;;6.60;6.15;;;20.90;50.00;;;;;;5048723;28;20055;-39
2021/04/22 02:53:59;;;;;;;6.82;6.43;;;21.00;50.10;;;;;;5048336;28;20490;-35
2021/04/22 02:56:24;;;;;;;6.18;5.78;;;20.90;50.10;;;;;;5049187;28;20032;-41
2021/04/22 02:58:50;;;;;;;6.32;5.82;;;20.90;50.10;;;;;;5049061;28;20029;-37
2021/04/22 03:01:15;;;;;;;5.60;5.30;;;20.90;50.20;;;;;;5047806;28;20585;-39
2021/04/22 03:03:41;;;;;;;6.95;6.45;;;20.90;50.20;;;;;;5047412;28;20053;-36
2021/04/22 03:06:06;;;;;;;6.68;6.18;;;20.90;50.20;;;;;;5049171;28;20033;-41
2021/04/22 03:08:32;;;;;;;6.55;6.07;;;20.90;50.80;;;;;;5049223;28;20025;-43
2021/04/22 03:10:58;;;;;;;5.97;5.68;;;20.80;50.90;;;;;;5048493;28;20071;-44
2021/04/22 03:13:23;;;;;;;6.05;5.75;;;20.80;50.20;;;;;;5047453;28;20495;-38
2021/04/22 03:15:49;;;;;;;6.93;6.43;;;20.80;50.90;;;;;;5047196;28;20074;-38
2021/04/22 03:18:14;;;;;;;6.20;5.80;;;20.80;50.20;;;;;;5046243;28;20053;-41
2021/04/22 03:20:40;;;;;;;6.97;6.47;;;20.80;50.30;;;;;;5049430;28;20029;-41
2021/04/22 03:23:06;;;;;;;6.82;6.35;;;20.80;50.20;;;;;;5049164;28;20040;-36
2021/04/22 03:25:32;;;;;;;5.90;5.60;;;20.80;50.20;;;;;;5041876;28;20079;-36
2021/04/22 03:27:57;;;;;;;5.97;5.57;;;20.80;50.30;;;;;;5036123;28;20025;-36
2021/04/22 03:30:25;;;;;;;5.65;5.25;;;20.80;50.30;;;;;;5032161;28;20029;-39
2021/04/22 03:32:51;;;;;;;5.90;5.57;;;20.80;50.50;;;;;;5041001;28;20634;-41
2021/04/22 03:35:17;;;;;;;5.95;5.55;;;20.80;50.50;;;;;;5043526;28;20140;-42
2021/04/22 03:37:43;;;;;;;6.53;6.20;;;20.80;50.40;;;;;;5040856;28;20104;-36
2021/04/22 03:40:09;;;;;;;6.32;5.93;;;20.70;50.30;;;;;;5035358;28;20022;-35
2021/04/22 03:42:35;;;;;;;6.10;5.70;;;20.80;50.40;;;;;;5047064;28;20111;-40
2021/04/22 03:45:01;;;;;;;5.60;5.30;;;20.80;50.40;;;;;;5033213;28;20523;-35
2021/04/22 03:47:26;;;;;;;6.15;5.65;;;20.70;50.50;;;;;;5035648;28;20029;-37
2021/04/22 03:49:52;;;;;;;5.90;5.50;;;20.70;50.50;;;;;;5047148;28;20048;-36
2021/04/22 03:52:19;;;;;;;5.63;5.22;;;20.70;50.60;;;;;;5047357;28;20081;-41
2021/04/22 03:54:45;;;;;;;5.63;5.32;;;20.70;50.40;;;;;;5045863;28;20036;-42
2021/04/22 03:57:10;;;;;;;5.85;5.55;;;20.70;50.40;;;;;;5045733;28;20021;-39
2021/04/22 03:59:36;;;;;;;6.22;5.82;;;20.70;50.50;;;;;;5067044;28;20052;-39
2021/04/22 04:02:02;;;;;;;5.95;5.63;;;20.70;50.40;;;;;;5051344;28;20017;-39
2021/04/22 04:04:27;;;;;;;5.95;5.55;;;20.70;50.40;;;;;;5033477;28;20045;-40
2021/04/22 04:06:53;;;;;;;6.07;5.68;;;20.70;50.30;;;;;;5050093;28;20036;-38
2021/04/22 04:09:18;;;;;;;5.90;5.53;;;20.70;50.30;;;;;;5032490;28;20064;-40
2021/04/22 04:11:44;;;;;;;5.90;5.60;;;20.70;50.30;;;;;;5050997;28;20029;-37
2021/04/22 04:14:10;;;;;;;5.95;5.65;;;20.70;50.50;;;;;;5047930;28;20064;-39
2021/04/22 04:16:35;;;;;;;6.32;5.93;;;20.70;50.40;;;;;;5048739;28;20032;-39
2021/04/22 04:19:01;;;;;;;5.32;5.05;;;20.70;50.40;;;;;;5050367;28;20035;-41
2021/04/22 04:21:26;;;;;;;5.82;5.43;;;20.70;50.50;;;;;;5032434;28;20029;-37
2021/04/22 04:23:52;;;;;;;5.97;5.57;;;20.60;50.50;;;;;;5047100;28;20060;-37
2021/04/22 04:26:17;;;;;;;5.65;5.35;;;20.60;50.50;;;;;;5053541;28;20033;-37
2021/04/22 04:28:43;;;;;;;6.30;5.90;;;20.60;50.50;;;;;;5043069;28;20037;-39
2021/04/22 04:31:09;;;;;;;5.82;5.53;;;20.60;50.50;;;;;;5041487;28;20434;-40
2021/04/22 04:33:34;;;;;;;5.93;5.60;;;20.60;50.50;;;;;;5046778;28;20037;-37
2021/04/22 04:36:00;;;;;;;5.85;5.55;;;20.60;50.40;;;;;;5036850;28;20018;-38
2021/04/22 04:38:25;;;;;;;6.30;5.90;;;20.60;50.60;;;;;;5039967;28;20037;-36
2021/04/22 04:40:51;;;;;;;6.50;6.10;;;20.60;50.60;;;;;;5043863;28;20025;-37
2021/04/22 04:43:17;;;;;;;5.97;5.57;;;20.60;50.60;;;;;;5029662;28;20064;-37
2021/04/22 04:45:42;;;;;;;5.55;5.25;;;20.60;50.60;;;;;;5036769;28;20024;-39
2021/04/22 04:48:08;;;;;;;5.63;5.22;;;20.60;51.30;;;;;;5049513;28;20127;-35
2021/04/22 04:50:34;;;;;;;6.30;5.93;;;20.60;50.80;;;;;;5049861;28;20091;-41
2021/04/22 04:52:59;;;;;;;5.90;5.60;;;20.60;50.70;;;;;;5040796;28;20066;-36
2021/04/22 04:55:25;;;;;;;5.95;5.55;;;20.50;50.70;;;;;;5045318;28;20029;-39
2021/04/22 04:57:51;;;;;;;6.10;5.63;;;20.50;50.70;;;;;;5043756;28;20033;-41
2021/04/22 05:00:17;;;;;;;5.53;5.18;;;20.50;50.60;;;;;;5048468;28;20544;-40
2021/04/22 05:02:44;;;;;;;5.40;5.10;;;20.60;50.60;;;;;;5045353;28;20029;-41
2021/04/22 05:05:10;;;;;;;5.75;5.45;;;20.60;51.30;;;;;;5050442;28;20045;-39
2021/04/22 05:07:36;;;;;;;5.00;4.70;;;20.60;50.60;;;;;;5051173;28;20024;-40
2021/04/22 05:10:04;;;;;;;5.72;5.32;;;20.60;50.60;;;;;;5045154;28;20066;-40
2021/04/22 05:12:30;;;;;;;6.15;5.75;;;20.50;51.20;;;;;;5043633;28;20422;-42
2021/04/22 05:14:55;;;;;;;5.65;5.35;;;20.60;50.50;;;;;;5036037;28;20644;-37
2021/04/22 05:17:21;;;;;;;5.55;5.15;;;20.50;50.60;;;;;;5047589;28;20028;-36
2021/04/22 05:19:47;;;;;;;6.13;5.72;;;20.50;50.60;;;;;;5045709;28;20032;-38
2021/04/22 05:22:12;;;;;;;5.75;5.35;;;20.50;50.60;;;;;;5047082;28;20036;-35
2021/04/22 05:24:38;;;;;;;5.78;5.47;;;20.50;51.30;;;;;;5035971;28;20083;-40
2021/04/22 05:27:04;;;;;;;5.50;5.20;;;20.50;50.60;;;;;;5049525;28;20406;-38
2021/04/22 05:29:29;;;;;;;5.53;5.20;;;20.50;50.50;;;;;;5040357;28;20025;-38
2021/04/22 05:31:55;;;;;;;5.70;5.40;;;20.60;50.60;;;;;;5047207;28;20060;-34
2021/04/22 05:34:21;;;;;;;5.65;5.35;;;20.50;50.50;;;;;;5031523;28;20103;-38
2021/04/22 05:36:46;;;;;;;5.35;5.05;;;20.60;50.60;;;;;;5047460;28;20021;-37
2021/04/22 05:39:12;;;;;;;5.82;5.53;;;20.60;50.50;;;;;;5049378;28;20116;-38
2021/04/22 05:41:37;;;;;;;5.63;5.32;;;20.50;50.50;;;;;;5037869;28;20040;-40
2021/04/22 05:44:03;;;;;;;5.45;5.15;;;20.50;50.60;;;;;;5047975;28;20109;-37
2021/04/22 05:46:29;;;;;;;5.28;4.97;;;20.50;50.60;;;;;;5050366;28;20075;-38
2021/04/22 05:48:55;;;;;;;5.70;5.40;;;20.50;50.60;;;;;;5049980;28;20032;-36
2021/04/22 05:51:21;;;;;;;5.35;5.05;;;20.50;50.50;;;;;;5048567;28;20103;-38
2021/04/22 05:53:46;;;;;;;5.60;5.20;;;20.50;50.50;;;;;;5051423;28;20041;-34
2021/04/22 05:56:12;;;;;;;5.57;5.30;;;20.50;50.60;;;;;;5050285;28;20044;-39
2021/04/22 05:58:37;;;;;;;5.50;5.20;;;20.50;50.60;;;;;;5050573;28;20067;-45
2021/04/22 06:01:03;;;;;;;5.28;4.97;;;20.50;50.70;;;;;;5049310;28;20036;-44
2021/04/22 06:03:29;;;;;;;5.43;5.13;;;20.50;50.50;;;;;;5047014;28;20113;-37
2021/04/22 06:05:55;;;;;;;5.32;4.93;;;20.50;50.50;;;;;;5051135;28;20037;-40
2021/04/22 06:08:20;;;;;;;5.07;4.78;;;20.50;50.50;;;;;;5056402;28;20105;-39
2021/04/22 06:10:46;;;;;;;5.13;4.90;;;20.50;50.60;;;;;;5059413;28;20017;-43
2021/04/22 06:13:13;;;;;;;5.90;5.50;;;20.50;50.50;;;;;;5063701;28;20848;-41
2021/04/22 06:15:39;;;;;;;4.93;4.63;;;20.50;50.60;;;;;;5065011;28;20097;-41
2021/04/22 06:18:05;;;;;;;4.93;4.63;;;20.50;50.60;;;;;;5067961;28;20029;-42
2021/04/22 06:20:30;;;;;;;5.03;4.82;;;20.50;50.50;;;;;;5058014;28;20411;-36
2021/04/22 06:22:56;;;;;;;5.95;5.55;;;20.40;50.60;;;;;;5057568;28;20016;-36
2021/04/22 06:25:22;;;;;;;5.85;5.45;;;20.50;50.60;;;;;;5057329;28;20029;-37
2021/04/22 06:27:51;;;;;;;5.20;4.85;;;20.50;50.60;;;;;;5059000;28;20028;-43
2021/04/22 06:30:17;;;;;;;4.97;4.78;;;20.50;50.60;;;;;;5063658;28;20116;-41
2021/04/22 06:32:42;;;;;;;5.65;5.20;;;20.50;50.60;;;;;;5056982;28;20116;-42
2021/04/22 06:35:09;;;;;;;5.38;4.93;;;20.50;50.60;;;;;;5043003;28;20669;-40
2021/04/22 06:37:35;;;;;;;5.10;4.70;;;20.40;50.90;;;;;;5016627;28;20083;-38
2021/04/22 06:40:00;;;;;;;4.18;3.97;;;20.40;52.80;;;;;;5034679;28;20320;-38
2021/04/22 06:42:26;;;;;;;4.53;4.22;;;20.40;52.40;;;;;;5033611;28;20033;-42
2021/04/22 06:44:52;;;;;;;4.60;4.30;;;20.40;51.80;;;;;;5033912;28;20404;-44
2021/04/22 06:47:17;;;;;;;4.22;3.92;;;20.50;51.70;;;;;;5034253;28;20029;-46
2021/04/22 06:49:43;;;;;;;4.78;4.47;;;20.50;51.70;;;;;;5037571;28;20510;-43
2021/04/22 06:52:08;;;;;;;5.20;4.82;;;20.50;51.50;;;;;;5039510;28;20026;-41
2021/04/22 06:54:34;;;;;;;4.75;4.45;;;20.50;51.40;;;;;;5043809;28;20051;-45
2021/04/22 06:57:00;;;;;;;4.93;4.63;;;20.60;51.30;;;;;;5037102;28;20028;-42
2021/04/22 06:59:25;;;;;;;5.03;4.72;;;20.60;51.30;;;;;;5036520;28;20033;-41
2021/04/22 07:01:51;;;;;;;5.63;5.30;;;20.60;51.20;;;;;;5042447;28;20027;-46
2021/04/22 07:04:17;;;;;;;5.78;5.40;;;20.60;51.10;;;;;;5020902;28;20507;-42
2021/04/22 07:06:43;;;;;;;5.93;5.53;;;20.60;51.70;;;;;;5042333;28;20017;-42
2021/04/22 07:09:08;;;;;;;7.32;6.65;;;20.70;51.00;;;;;;5039452;28;20491;-40
2021/04/22 07:11:34;;;;;;;6.65;6.15;;;20.70;51.50;;;;;;5038323;28;20017;-39
2021/04/22 07:13:59;;;;;;;6.68;6.03;;;20.70;50.90;;;;;;5045562;28;20045;-39
2021/04/22 07:16:25;;;;;;;6.35;5.93;;;20.70;50.80;;;;;;5029693;28;20025;-43
2021/04/22 07:18:52;;;;;;;6.80;6.20;;;20.70;50.60;;;;;;5043995;28;20449;-45
2021/04/22 07:21:18;;;;;;;6.78;6.20;;;20.80;50.40;;;;;;5023369;28;20059;-42
2021/04/22 07:23:43;;;;;;;6.25;5.85;;;21.00;50.00;;;;;;5045967;28;20051;-39
2021/04/22 07:26:09;;;;;;;7.03;6.50;;;21.10;49.80;;;;;;5036534;28;20029;-42
2021/04/22 07:28:35;;;;;;;6.93;6.30;;;21.00;49.80;;;;;;5043748;28;20052;-43
2021/04/22 07:31:00;;;;;;;6.78;6.28;;;21.00;50.00;;;;;;5043701;28;20079;-44
2021/04/22 07:33:26;;;;;;;6.90;6.20;;;21.00;50.20;;;;;;5044716;28;20037;-39
2021/04/22 07:35:51;;;;;;;7.00;6.50;;;20.90;50.90;;;;;;5049483;28;20025;-43
2021/04/22 07:38:17;;;;;;;7.32;6.63;;;20.80;50.40;;;;;;5046069;28;20124;-43
2021/04/22 07:40:43;;;;;;;7.47;6.80;;;20.70;50.80;;;;;;5025248;28;20021;-41
2021/04/22 07:43:09;;;;;;;9.05;6.25;;;20.60;51.20;;;;;;5042081;28;20034;-43
2021/04/22 08:08:21;;;;;;;8.50;7.70;;;20.50;51.10;;;;;;4994971;28;20416;-42
2021/04/22 08:10:47;;;;;;;7.63;7.03;;;21.00;51.30;;;;;;5001078;28;20117;-41
2021/04/22 08:13:14;;;;;;;7.50;6.90;;;21.10;50.80;;;;;;4995886;28;20456;-45
2021/04/22 08:15:41;;;;;;;7.38;6.68;;;21.20;50.60;;;;;;4656515;28;10000376;-43
2021/04/22 08:18:06;;;;;;;7.57;7.05;;;21.30;51.20;;;;;;4999016;28;20034;-44
2021/04/22 08:20:32;;;;;;;6.95;6.45;;;21.20;51.30;;;;;;4971206;28;20053;-44
2021/04/22 08:22:59;;;;;;;7.43;6.15;;;21.30;50.60;;;;;;4990686;28;20038;-43
2021/04/22 08:25:27;;;;;;;8.35;6.18;;;21.30;50.70;;;;;;4992610;28;20030;-43
2021/04/22 08:27:54;;;;;;;8.02;6.30;;;21.30;50.50;;;;;;4990589;28;20085;-43
2021/04/22 08:30:23;;;;;;;6.03;5.63;;;21.30;50.50;;;;;;4990344;28;20034;-43
2021/04/22 08:32:48;;;;;;;6.45;5.95;;;21.30;50.40;;;;;;4992544;28;20034;-43
2021/04/22 08:35:14;;;;;;;5.90;5.50;;;21.30;50.30;;;;;;4991954;28;20404;-40
2021/04/22 08:37:40;;;;;;;6.72;6.13;;;21.30;50.50;;;;;;4991207;28;21579;-44
2021/04/22 08:40:07;;;;;;;6.47;5.97;;;21.20;51.00;;;;;;4990886;28;20041;-42
2021/04/22 08:42:33;;;;;;;6.75;6.10;;;21.10;51.30;;;;;;4991450;28;20136;-43
2021/04/22 08:45:02;;;;;;;5.80;5.47;;;21.20;51.50;;;;;;4992342;28;20071;-45
2021/04/22 08:47:28;;;;;;;6.10;5.70;;;21.20;51.50;;;;;;4991853;28;20136;-41
2021/04/22 08:49:55;;;;;;;5.85;5.35;;;21.30;51.40;;;;;;4990246;28;20033;-35
2021/04/22 08:52:21;;;;;;;6.50;5.90;;;21.30;51.90;;;;;;4991144;28;20692;-43
2021/04/22 08:54:46;;;;;;;5.78;5.38;;;21.30;51.30;;;;;;4991687;28;20034;-43
2021/04/22 08:57:12;;;;;;;5.80;4.85;;;21.30;51.40;;;;;;4996070;28;20077;-41
2021/04/22 08:59:37;;;;;;;5.40;4.88;;;21.50;51.20;;;;;;4991251;28;20510;-41
2021/04/22 09:02:03;;;;;;;5.30;5.00;;;21.50;51.50;;;;;;4977774;28;20121;-43
2021/04/22 09:04:29;;;;;;;4.68;4.38;;;21.60;51.20;;;;;;4977782;28;20037;-43
2021/04/22 09:06:54;;;;;;;4.53;4.03;;;21.70;51.00;;;;;;4978619;28;20140;-44
2021/04/22 09:09:20;;;;;;;8.88;4.60;;;21.60;51.60;;;;;;4976232;28;20045;-41
2021/04/22 09:11:47;;;;;;;4.88;4.47;;;21.70;51.30;;;;;;4972673;28;20576;-43
2021/04/22 09:14:14;;;;;;;4.55;4.20;;;21.70;51.10;;;;;;4976200;28;20074;-44
2021/04/22 09:16:40;;;;;;;4.65;4.28;;;21.80;50.90;;;;;;4977863;28;20106;-42
2021/04/22 09:19:14;;;;;;;4.65;4.35;;;21.80;50.90;;;;;;4977363;28;20819;-44
2021/04/22 09:21:42;;;;;;;4.20;3.90;;;21.90;50.60;;;;;;4979857;28;20118;-44
2021/04/22 09:24:13;;;;;;;4.05;3.75;;;21.90;50.70;;;;;;4975128;28;20397;-44
2021/04/22 09:26:41;;;;;;;4.85;4.32;;;21.90;50.70;;;;;;4979914;28;20500;-44
2021/04/22 09:29:08;;;;;;;4.43;4.03;;;21.90;50.70;;;;;;4976892;28;20052;-43
2021/04/22 09:31:33;;;;;;;4.30;3.92;;;21.90;50.70;;;;;;4982075;28;20034;-44
2021/04/22 09:34:10;;;;;;;4.43;4.13;;;22.00;50.50;;;;;;4984265;28;20033;-43
2021/04/22 09:36:55;;;;;;;4.63;4.22;;;22.00;50.50;;;;;;4983336;28;20046;-43
2021/04/22 09:39:25;;;;;;;5.05;4.55;;;22.00;50.50;;;;;;4975978;28;20046;-43
2021/04/22 09:41:52;;;;;;;6.80;5.03;;;22.10;50.60;;;;;;4979566;28;20058;-43
2021/04/22 09:44:18;;;;;;;7.57;4.75;;;22.10;50.50;;;;;;4978024;28;20069;-42
2021/04/22 09:46:45;;;;;;;5.13;4.40;;;22.10;50.50;;;;;;4980567;28;20130;-43
2021/04/22 09:49:13;;;;;;;5.30;4.78;;;22.20;50.70;;;;;;4978204;28;20034;-40
2021/04/22 09:51:39;;;;;;;5.40;4.90;;;22.10;51.10;;;;;;4980812;28;20087;-40
2021/04/22 09:54:16;;;;;;;5.35;4.95;;;22.00;51.50;;;;;;4980097;28;20038;-43
2021/04/22 09:56:47;;;;;;;6.43;5.82;;;22.00;51.30;;;;;;4979010;28;20067;-42
2021/04/22 09:59:20;;;;;;;10.73;7.93;;;21.90;51.50;;;;;;4977162;28;20045;-39
2021/04/22 10:02:05;;;;;;;12.18;8.75;;;22.00;51.10;;;;;;4980264;28;20033;-41
2021/04/22 10:04:38;;;;;;;10.75;9.43;;;21.80;51.30;;;;;;4977503;28;21527;-43
2021/04/22 10:07:18;;;;;;;16.30;11.40;;;21.70;51.10;;;;;;4979769;28;20064;-36
2021/04/22 10:09:44;;;;;;;13.30;11.15;;;21.70;50.90;;;;;;4973713;28;20045;-43
2021/04/22 10:12:10;;;;;;;14.57;11.00;;;21.80;50.50;;;;;;4976102;28;20046;-41
2021/04/22 10:14:37;;;;;;;16.65;11.73;;;21.80;50.70;;;;;;4975876;28;20146;-43
2021/04/22 10:17:18;;;;;;;15.32;12.32;;;21.70;50.50;;;;;;4978812;28;20049;-44
2021/04/22 10:20:06;;;;;;;16.23;12.75;;;21.80;50.50;;;;;;4977364;28;20034;-41
2021/04/22 10:22:36;;;;;;;18.83;13.23;;;21.70;50.30;;;;;;4979499;28;20037;-43
2021/04/22 10:25:05;;;;;;;20.00;13.85;;;21.70;50.40;;;;;;4977915;28;20049;-44
2021/04/22 10:27:30;;;;;;;19.92;15.07;;;21.70;50.40;;;;;;4977770;28;20042;-43
2021/04/22 10:29:56;;;;;;;16.33;14.35;;;21.80;50.80;;;;;;5019567;28;20051;-44
2021/04/22 10:32:22;;;;;;;23.92;14.98;;;22.00;50.10;;;;;;5032557;28;20500;-41
2021/04/22 10:34:49;;;;;;;20.77;15.27;;;22.00;50.20;;;;;;4988660;28;20068;-39
2021/04/22 10:37:15;;;;;;;17.40;15.02;;;22.00;50.20;;;;;;4979079;28;20039;-41
2021/04/22 10:39:41;;;;;;;23.92;16.33;;;22.10;49.70;;;;;;5008342;28;20042;-40
2021/04/22 10:42:06;;;;;;;21.92;17.42;;;22.00;49.80;;;;;;4977782;28;20141;-39
2021/04/22 10:44:32;;;;;;;25.58;18.42;;;21.90;49.80;;;;;;4992175;28;20566;-38
2021/04/22 10:47:00;;;;;;;23.48;18.88;;;21.90;49.70;;;;;;4990922;28;20544;-36
2021/04/22 10:49:27;;;;;;;37.90;28.25;;;21.80;49.70;;;;;;4983661;28;20059;-39
2021/04/22 10:51:53;;;;;;;36.97;30.27;;;21.70;49.90;;;;;;4978441;28;20038;-38
2021/04/22 10:54:18;;;;;;;41.90;32.67;;;21.80;50.00;;;;;;4986594;28;20408;-37
2021/04/22 10:56:46;;;;;;;42.03;33.22;;;21.70;50.10;;;;;;4983594;28;20476;-39
2021/04/22 10:59:22;;;;;;;43.38;32.50;;;21.70;50.30;;;;;;4985911;28;20034;-41
2021/04/22 11:01:47;;;;;;;40.95;32.63;;;21.70;50.60;;;;;;5003733;28;20062;-36
2021/04/22 11:04:13;;;;;;;45.08;33.45;;;21.70;50.90;;;;;;5013563;28;20045;-38
2021/04/22 11:06:39;;;;;;;40.38;30.25;;;21.60;51.20;;;;;;5011603;28;20057;-40
2021/04/22 11:09:21;;;;;;;35.88;29.63;;;21.60;51.40;;;;;;5031090;28;20131;-41
2021/04/22 11:11:56;;;;;;;35.55;29.90;;;21.60;51.50;;;;;;4992014;28;20050;-35
2021/04/22 11:14:26;;;;;;;31.05;24.10;;;21.60;51.70;;;;;;5010570;28;20046;-39
2021/04/22 11:16:52;;;;;;;32.25;24.90;;;21.60;51.70;;;;;;4989436;28;20513;-42
2021/04/22 11:19:25;;;;;;;27.85;21.92;;;21.60;51.60;;;;;;4994462;28;20414;-35
2021/04/22 11:21:52;;;;;;;24.45;21.08;;;21.50;51.70;;;;;;4995410;28;20050;-37
2021/04/22 11:24:42;;;;;;;27.33;20.40;;;21.60;51.80;;;;;;4995201;28;20123;-37
2021/04/22 11:27:13;;;;;;;24.88;19.85;;;21.60;51.60;;;;;;4987913;28;20125;-38
2021/04/22 11:29:39;;;;;;;25.35;19.48;;;21.70;51.20;;;;;;4979702;28;20626;-39
2021/04/22 11:32:15;;;;;;;24.05;17.38;;;21.70;51.30;;;;;;5026567;28;20050;-35
2021/04/22 11:34:40;;;;;;;22.58;17.02;;;21.70;51.30;;;;;;4989371;28;20076;-39
2021/04/22 11:37:13;;;;;;;21.33;15.80;;;21.70;51.30;;;;;;5029549;28;20092;-38
2021/04/22 11:39:39;;;;;;;16.33;14.70;;;21.70;51.10;;;;;;4981584;28;20046;-38
2021/04/22 11:42:04;;;;;;;16.35;14.68;;;21.80;51.10;;;;;;4997380;28;20037;-38
2021/04/22 11:44:41;;;;;;;19.63;15.27;;;21.90;50.60;;;;;;5006295;28;20073;-39
2021/04/22 11:47:25;;;;;;;18.52;15.23;;;21.80;50.80;;;;;;4971535;28;20050;-42
2021/04/22 11:50:11;;;;;;;16.88;15.00;;;22.00;50.70;;;;;;4989202;28;20092;-40
2021/04/22 11:52:57;;;;;;;18.67;14.07;;;22.10;51.20;;;;;;4980193;28;20049;-39
2021/04/22 11:55:25;;;;;;;17.77;13.90;;;22.00;50.70;;;;;;4981664;28;20038;-38
2021/04/22 11:57:51;;;;;;;14.10;12.60;;;21.90;50.90;;;;;;5005302;28;20135;-37
2021/04/22 12:00:18;;;;;;;15.32;13.45;;;21.80;51.00;;;;;;4995843;28;20046;-38
2021/04/22 12:02:45;;;;;;;14.32;12.65;;;21.90;50.70;;;;;;4995592;28;20058;-33
2021/04/22 12:05:15;;;;;;;14.95;12.88;;;21.80;50.70;;;;;;4994539;28;20123;-34
2021/04/22 12:07:41;;;;;;;15.50;12.60;;;21.90;50.70;;;;;;4989593;28;20060;-41
2021/04/22 12:10:08;;;;;;;13.95;12.45;;;21.80;50.70;;;;;;4984732;28;20034;-40
2021/04/22 12:12:34;;;;;;;15.93;12.93;;;21.80;50.70;;;;;;4999489;28;20050;-39
2021/04/22 12:15:00;;;;;;;15.45;12.23;;;21.80;50.60;;;;;;5005617;28;20067;-38
2021/04/22 12:17:34;;;;;;;13.88;12.32;;;21.80;50.40;;;;;;5007960;28;20070;-39
2021/04/22 12:20:06;;;;;;;16.15;12.93;;;21.80;50.20;;;;;;5010388;28;20601;-34
2021/04/22 12:22:36;;;;;;;13.52;11.50;;;21.80;50.10;;;;;;5006105;28;20042;-41
2021/04/22 12:25:13;;;;;;;13.73;10.68;;;21.80;50.10;;;;;;4985163;28;20076;-42
2021/04/22 12:27:45;;;;;;;11.57;10.38;;;22.00;49.90;;;;;;5028615;28;20086;-35
2021/04/22 12:30:31;;;;;;;12.15;10.55;;;22.20;49.60;;;;;;4988502;28;20460;-38
2021/04/22 12:33:05;;;;;;;10.45;9.55;;;22.10;49.50;;;;;;4986796;28;20050;-44
2021/04/22 12:35:31;;;;;;;;;;;22.20;50.00;;;;;;4988459;28;20082;-41
2021/04/22 12:37:57;;;;;;;11.13;9.98;;;22.10;49.20;;;;;;4980897;28;20016;-39
2021/04/22 12:40:23;;;;;;;11.63;10.40;;;22.00;49.10;;;;;;4979747;28;20062;-39
2021/04/22 12:42:48;;;;;;;10.73;9.82;;;22.10;48.80;;;;;;4982914;28;20046;-37
2021/04/22 12:45:21;;;;;;;10.40;9.43;;;22.10;48.70;;;;;;4983247;28;20590;-40
2021/04/22 12:47:55;;;;;;;10.45;9.45;;;22.00;48.60;;;;;;4981708;28;20050;-39
2021/04/22 12:50:26;;;;;;;9.43;8.57;;;22.10;48.80;;;;;;4983536;28;20123;-40
2021/04/22 12:53:20;;;;;;;10.90;9.90;;;22.20;48.80;;;;;;4987626;28;20081;-42
2021/04/22 12:55:48;;;;;;;10.65;9.57;;;22.30;48.10;;;;;;5019472;28;20772;-39
2021/04/22 12:58:15;;;;;;;9.75;8.75;;;22.30;48.40;;;;;;4994988;28;20049;-39
2021/04/22 13:00:49;;;;;;;9.32;8.52;;;22.50;48.00;;;;;;4996620;28;20415;-41
2021/04/22 13:03:27;;;;;;;;;;;22.50;47.90;;;;;;4992522;28;20130;-39
2021/04/22 13:05:58;;;;;;;8.10;7.40;;;22.50;47.90;;;;;;4985544;28;19939;-39